Relevés horaires Bierset (Belgique)


Relevés horaires à Bierset - Dimanche 04 Juin 2023
Heure UTC1 Température [°C] Vent [km/h] Hum. [%] Pres.4 [hPa] Visi. [Km] Nébu. [octa] Préc.5 [mm] Cond.
2m. Res. Ros. Dir.2 Vit. Moy. Raf.3
23:00 13.6 13.6 4.3 NNE 3.7 5.6 13.0 53 1021.2(0.6/3h) 20 0/8 -- --
22:00 14.4 14.4 3.7 NE 3.7 5.6 5.6 49 1021.2(1.0/3h) 20 0/8 -- --
21:00 15.1 15.1 3.8 NE 5.6 9.3 13.0 47 1020.9(1.0/3h) 20 0/8 -- --
20:00 16.2 16.2 4.1 NNE 5.6 7.4 9.3 44 1020.4(0.5/3h) 20 0/8 -- --
19:00 19.3 19.3 3.7 NNE 7.4 9.3 13.0 36 1019.8(-0.2/3h) 20 0/8 -- --
18:00 20.9 20.9 2.4 NNE 9.3 13.0 20.4 29 1019.5(-0.5/3h) 20 0/8 0/12h
--
17:00 21.6 21.6 3.2 NNE 9.3 11.1 16.7 30 1019.5(-0.8/3h) 20 0/8 -- --
16:00 22.1 22.1 4.5 NE 9.3 11.1 18.5 32 1019.8(-0.6/3h) 20 0/8 -- --
15:00 22.2 22.2 4.7 N 9.3 13.0 20.4 32 1019.9(-0.6/3h) 20 0/8 -- --
14:00 22.5 22.5 4.6 NNE 11.1 13.0 18.5 31 1020.3(-0.3/3h) 20 0/8 -- --
13:00 22.1 22.1 5.0 N 11.1 13.0 20.4 33 1020.4(-0.4/3h) 20 0/8 -- --
12:00 21.5 21.5 4.4 NE 13.0 14.8 22.2 33 1020.6(-0.4/3h) 20 0/8 0/6h
--
11:00 20.8 20.8 3.9 NE 13.0 14.8 22.2 33 1020.8(0.1/3h) 20 0/8 -- --
10:00 20.3 20.3 5.1 NE 11.1 13.0 20.4 37 1020.9(0.3/3h) 20 0/8 -- --
09:00 18.6 18.6 6.1 NE 9.3 9.3 14.8 44 1021.1(0.6/3h) 20 0/8 -- --
08:00 16.5 16.5 5.3 NE 9.3 9.3 14.8 47 1021.2(0.8/3h) 20 0/8 -- --
07:00 15.1 15.1 4.2 ENE 7.4 7.4 14.8 48 1021(0.7/3h) 20 0/8 -- --
06:00 12.9 12.9 4.2 NNE 3.7 5.6 14.8 55 1020.9(0.3/3h) 20 0/8 0/12h
--
05:00 10.1 10.1 3.4 NNE 3.7 5.6 7.4 63 1020.9(0.3/3h) 20 1/8 -- --
04:00 8.6 8.6 2.6 NNE 3.7 5.6 5.6 66 1020.9(0.2/3h) 20 1/8 -- --
03:00 8.8 8.8 2.6 NNE 3.7 5.6 14.8 65 1020.9(-0.2/3h) 20 1/8 -- --
02:00 9.6 9.6 2.5 NNE 3.7 5.6 14.8 61 1020.6(-0.4/3h) 20 1/8 -- --
01:00 10.0 10.0 2.8 NNE 3.7 5.6 7.4 61 1020.6(-0.4/3h) 20 1/8 -- --
00:00 12.1 12 2.3 NE 5.6 11.1 16.7 51 1020.8(0.3/3h) 20 1/8 0/6h
0/24h
--

1 Coordinated Universal Time. Actuellement il est 13:00 locale et 11:00 UTC.

2 Le vent souffle depuis la direction indiquée vers la direction oposée.

3 Les rafales max. sont disponible 40 min après l'heure du relevé.

4 Pour les stations d'altitude (plus de 600m) le géopotentiel du niveau le plus proche de la pression obligatoire est indiqué.

5 Les stations disposant d'un diffuseur peuvent indiquer "trace". Cela signifie que des précipitations ont touchés le sol mais que la quantité est inférieure à 0.1 mm.

Récapitulatif de la journée
Température [°C] Vent [km/h] Ensoleillement4 [h] Precipitations totale5 [mm] Pression [Hpa]
Min1 Max.2 Moy.3 Max. Min Max.
8.3 22.8 9.4 22.2 0 h 0 min 0 1019.5 1021.2

1 Température minimale relevée entre 18:00 UTC la veille et 18:00 UTC le jour donné.

2 Température maximale relevée entre 06:00 UTC le jour donné et 06:00 UTC le lendemain.

3 Vent moyen de la journée basé sur les relevés horaires.

4 Ensoleillement en heures relevé entre 06:00 UTC la veille et 06:00 UTC le jour donné.

5 Précipitations totales tombées entre 06:00 UTC la jour donné et 06:00 UTC le lendemain.

Graphiques horaires